Meteo Giornale » Osservazioni meteo Emirati Arabi Uniti » Dubai Al Maktoum International Airport
ore: 22:30 - Osservazioni Meteo Dubai Al Maktoum International Airport
Lat. 24° 54' N Lon. 55° 10' E Alt. 19 metri s.l.m.
34 °C
Sereno
Temp. 24 Ore
29 °C
44 °C
Nord/Nord-Est
7.4 Km/h
Dew point 29 °C
Umidità 75 %
Visibilità 6 Km
Il sole sorge alle ore 06:00
Il sole tramonta alle ore 18:38
| Data e Ora | Cielo e Fenomeni | T °C | DP °C | Um. % | Pres. hPa | Vis. km | Vento km/h | |
|---|---|---|---|---|---|---|---|---|
| Oggi h: 22:30 | Sereno | 34 | 29 | 75 | 1001 | 6 | N/NE 7.4 | |
| Oggi h: 22:00 | Sereno | 34 | 29 | 75 | 1001 | 6 | NO 7.4 | |
| Oggi h: 21:30 | Sereno | 34 | 30 | 79 | 1001 | 6 | N/NO 7.4 | |
| Oggi h: 21:00 | Sereno | 34 | 30 | 79 | 1001 | 6 | N 5.5 | |
| Oggi h: 20:30 | Sereno | 35 | 30 | 75 | 1001 | 6 | N 11.1 | |
| Oggi h: 20:00 | Foschia | 35 | 30 | 75 | 1001 | 5 | N/NE 11.1 | |
| Oggi h: 19:30 | Foschia | 35 | 30 | 75 | 1000 | 5 | N/NO 14.8 | |
| Oggi h: 19:12 | polveroso | 35 | 30 | 75 | 1000 | 5 | NO 14.8 | |
| Oggi h: 19:00 | polveroso | 36 | 30 | 71 | 1000 | 4 | NO 16.7 | |
| Oggi h: 18:30 | polveroso | 36 | 30 | 71 | 1000 | 4 | N/NO 18.5 | |
| Oggi h: 18:00 | polveroso | 36 | 30 | 71 | 1000 | 4 | N/NO 20.3 | |
| Oggi h: 17:30 | polveroso | 37 | 30 | 67 | 1000 | 4 | NO 22.2 | |
| Oggi h: 17:00 | polveroso | 38 | 30 | 64 | 999 | 4 | N/NO 22.2 | |
| Oggi h: 16:30 | polveroso | 39 | 29 | 57 | 999 | 5 | N/NO 22.2 | |
| Oggi h: 16:00 | polveroso | 39 | 29 | 57 | 999 | 5 | NO 22.2 | |
| Oggi h: 15:30 | polveroso | 39 | 29 | 57 | 999 | 5 | NO 22.2 | |
| Oggi h: 15:00 | polveroso | 40 | 29 | 54 | 999 | 4 | NO 20.3 | |
| Oggi h: 14:30 | Sereno | 41 | 27 | 45 | 999 | 6 | N/NO 14.8 | |
| Oggi h: 14:00 | Sereno | 44 | 19 | 24 | 1000 | 8 | N 5.5 | |
| Oggi h: 13:30 | Sereno | 43 | 19 | 25 | 1000 | 8 | N 5.5 | |
| Oggi h: 13:00 | Sereno | 42 | 20 | 28 | 1000 | 8 | N 5.5 | |
| Oggi h: 12:30 | Sereno | 41 | 21 | 31 | 1001 | 7 | N 7.4 | |
| Oggi h: 12:00 | Sereno | 40 | 21 | 33 | 1001 | 7 | S 7.4 | |
| Oggi h: 11:30 | Sereno | 39 | 23 | 40 | 1002 | 6 | N 9.3 | |
| Oggi h: 11:00 | Sereno | 38 | 25 | 47 | 1002 | 6 | N 5.5 | |
| Oggi h: 10:30 | Sereno | 37 | 25 | 50 | 1002 | 6 | N 3.7 | |
| Oggi h: 10:00 | polveroso | 36 | 26 | 56 | 1002 | 5 | N 3.7 | |
| Oggi h: 09:30 | Foschia | 35 | 26 | 59 | 1002 | 5 | N 5.5 | |
| Oggi h: 09:00 | Foschia | 35 | 27 | 63 | 1002 | 4 | N 1.8 | |
| Oggi h: 08:30 | Foschia | 33 | 27 | 70 | 1002 | 4 | N 3.7 | |
| Oggi h: 08:00 | Foschia | 32 | 27 | 74 | 1002 | 4 | S/SO 11.1 | |
| Oggi h: 07:30 | Foschia | 30 | 26 | 79 | 1001 | 3 | O 11.1 | |
| Oggi h: 07:00 | Foschia | 30 | 26 | 79 | 1001 | 3 | O 11.1 | |
| Oggi h: 06:30 | Foschia | 30 | 27 | 84 | 1001 | 3 | O 9.3 | |
| Oggi h: 06:00 | Foschia | 29 | 26 | 83 | 1000 | 3 | E 7.4 | |
| Oggi h: 05:30 | Foschia | 29 | 26 | 83 | 1000 | 4 | E 11.1 | |
| Oggi h: 05:00 | Foschia | 30 | 26 | 79 | 1000 | 4 | E 13 | |
| Oggi h: 04:30 | Foschia | 30 | 26 | 79 | 1000 | 4 | E/SE 14.8 | |
| Oggi h: 04:00 | Foschia | 30 | 26 | 79 | 1000 | 4 | E/SE 14.8 | |
| Oggi h: 03:00 | Foschia | 32 | 28 | 79 | 1000 | 4 | E 7.4 | |
| Oggi h: 02:30 | Foschia | 32 | 27 | 74 | 1000 | 5 | N 5.5 | |
| Oggi h: 02:00 | Foschia | 31 | 26 | 74 | 1000 | 5 | N 5.5 | |
| Oggi h: 01:30 | Foschia | 32 | 26 | 70 | 1000 | 5 | E 7.4 | |
| Oggi h: 01:00 | Foschia | 32 | 26 | 70 | 1000 | 5 | E 7.4 | |
| Oggi h: 00:30 | Foschia | 32 | 25 | 66 | 1001 | 5 | E/SE 9.3 | |
| Oggi h: 00:00 | Foschia | 33 | 29 | 79 | 1001 | 5 | N 3.7 | |
| Ieri h: 23:30 | Foschia | 33 | 29 | 79 | 1001 | 5 | NO 7.4 | |
| Ieri h: 23:00 | Foschia | 33 | 29 | 79 | 1001 | 5 | NO 7.4 | |



